Immokalee, FL

11:56 PM EST en Noviembre 28, 2014 (GMT -0500)
Florida Specialties | Change Station
CLOSE
Current Station
Estación meteorológica personal
Location: Immokalee, FL
Altura: 26 ft
Estaciones meteorológicas cercanas

Alt 26 ft 26.37 °N, 81.30 °W | Updated 1 minute ago

Despejado
Despejado
50.5 ° F
Sensación térmica 50.5 ° F
N
6.0
Viento Variable Viento desde NNO
Gusts 14.0 mph

Hoy
Alta -- | Baja -- ° F
--% Posibilidad de precipitaciones
Ayer
Alta -- | Baja -- ° F
Precip. -- pul
6:53 AM 5:32 PM
Creciente, 47% visible
Presión 30.26 pul
Visibilidad 10.0 Millas
Nubes Despejado
Punto de rocío 47 ° F
Humedad 88%
Precipitaciones 0.00 pul
Espesor de la nieve No disponible.
UV 0.0 de una escala de 12
Polen 4.50 de una escala de 12
Calidad del aire No disponible.
Flu Activity No disponible.
METAR KIMM 290455Z AUTO 00000KT 10SM CLR 09/09 A3026 RMK A01 P000

More Conditions Fewer Conditions

Presión 30.26 pul
Visibilidad 10.0 Millas
Nubes Despejado
Punto de rocío 47 ° F
Humedad 88%
Precipitaciones 0.00 pul
Espesor de la nieve No disponible.
UV 0.0 de una escala de 12
Polen 4.50 de una escala de 12
Calidad del aire No disponible.
Flu Activity No disponible.
METAR KIMM 290455Z AUTO 00000KT 10SM CLR 09/09 A3026 RMK A01 P000

More Conditions Fewer Conditions

10-Day Weather Forecast

Almanac

Astronomía

Nov. 28, 2014 Salida Puesta
Hora real
Crepúsculo civil
Crepúsculo náutico
Crepúsculo astronómico
Luna
Horas de luz
Horas de luz
Tomorrow will be .
, % of the Moon is Illuminated

Extremos de hoy

Máximos del estado Bajos del estado

Community

WunderPhotos

Upload Photos

1,774,413 ¡fotos cargadas!

WunderBlogs® & News

Nearby

Calidad del aire

  Calidad del aire Índice AQ Contaminante
Not available.

Grosos de nieve

Estación Profundido Altura

Actividad de terremotos

Ciudad Distance Mag. Tiempo y dato
Magnitud mínima muestra es 2,5.

Temperaturas de aguas costeras

Lugar Temperatura

Estaciones meteorológicas cercanas